sensor_id;sensor_type;location;lat;lon;timestamp;P1;durP1;ratioP1;P2;durP2;ratioP2
65377;SDS011;51982;51.042;13.806;2024-01-06T00:01:14;13.80;;;5.80;;
65377;SDS011;51982;51.042;13.806;2024-01-06T00:03:40;18.77;;;6.93;;
65377;SDS011;51982;51.042;13.806;2024-01-06T00:06:05;12.52;;;6.40;;
65377;SDS011;51982;51.042;13.806;2024-01-06T00:08:31;15.30;;;6.68;;
65377;SDS011;51982;51.042;13.806;2024-01-06T00:10:56;13.30;;;6.57;;
65377;SDS011;51982;51.042;13.806;2024-01-06T00:13:21;8.90;;;5.97;;
65377;SDS011;51982;51.042;13.806;2024-01-06T00:15:46;12.32;;;6.10;;
65377;SDS011;51982;51.042;13.806;2024-01-06T00:18:11;13.33;;;6.60;;
65377;SDS011;51982;51.042;13.806;2024-01-06T00:20:37;15.05;;;6.45;;
65377;SDS011;51982;51.042;13.806;2024-01-06T00:23:02;12.85;;;6.57;;
65377;SDS011;51982;51.042;13.806;2024-01-06T00:25:27;14.35;;;6.65;;
65377;SDS011;51982;51.042;13.806;2024-01-06T00:27:52;14.68;;;6.82;;
65377;SDS011;51982;51.042;13.806;2024-01-06T00:30:18;16.73;;;6.90;;
65377;SDS011;51982;51.042;13.806;2024-01-06T00:32:43;13.15;;;7.18;;
65377;SDS011;51982;51.042;13.806;2024-01-06T00:35:08;15.97;;;7.13;;
65377;SDS011;51982;51.042;13.806;2024-01-06T00:37:33;12.43;;;6.67;;
65377;SDS011;51982;51.042;13.806;2024-01-06T00:39:59;14.10;;;6.97;;
65377;SDS011;51982;51.042;13.806;2024-01-06T00:42:24;12.65;;;6.88;;
65377;SDS011;51982;51.042;13.806;2024-01-06T00:44:50;16.17;;;6.10;;
65377;SDS011;51982;51.042;13.806;2024-01-06T00:47:15;15.40;;;6.50;;
65377;SDS011;51982;51.042;13.806;2024-01-06T00:49:40;15.23;;;7.07;;
65377;SDS011;51982;51.042;13.806;2024-01-06T00:52:05;14.43;;;6.40;;
65377;SDS011;51982;51.042;13.806;2024-01-06T00:54:30;14.50;;;6.97;;
65377;SDS011;51982;51.042;13.806;2024-01-06T00:56:56;16.77;;;6.87;;
65377;SDS011;51982;51.042;13.806;2024-01-06T00:59:21;15.98;;;6.95;;
65377;SDS011;51982;51.042;13.806;2024-01-06T01:01:46;15.05;;;6.93;;
65377;SDS011;51982;51.042;13.806;2024-01-06T01:04:11;13.23;;;6.65;;
65377;SDS011;51982;51.042;13.806;2024-01-06T01:06:37;16.33;;;7.07;;
65377;SDS011;51982;51.042;13.806;2024-01-06T01:09:02;10.68;;;6.45;;
65377;SDS011;51982;51.042;13.806;2024-01-06T01:11:27;12.65;;;6.68;;
65377;SDS011;51982;51.042;13.806;2024-01-06T01:13:53;13.30;;;7.00;;
65377;SDS011;51982;51.042;13.806;2024-01-06T01:16:18;16.45;;;7.68;;
65377;SDS011;51982;51.042;13.806;2024-01-06T01:18:43;14.07;;;6.57;;
65377;SDS011;51982;51.042;13.806;2024-01-06T01:21:08;14.67;;;6.97;;
65377;SDS011;51982;51.042;13.806;2024-01-06T01:23:33;12.98;;;6.22;;
65377;SDS011;51982;51.042;13.806;2024-01-06T01:25:59;14.13;;;6.78;;
65377;SDS011;51982;51.042;13.806;2024-01-06T01:28:24;11.77;;;6.65;;
65377;SDS011;51982;51.042;13.806;2024-01-06T01:30:49;15.30;;;6.60;;
65377;SDS011;51982;51.042;13.806;2024-01-06T01:33:15;11.23;;;6.47;;
65377;SDS011;51982;51.042;13.806;2024-01-06T01:35:40;15.87;;;7.10;;
65377;SDS011;51982;51.042;13.806;2024-01-06T01:38:06;16.20;;;7.55;;
65377;SDS011;51982;51.042;13.806;2024-01-06T01:40:32;16.35;;;8.23;;
65377;SDS011;51982;51.042;13.806;2024-01-06T01:42:57;15.20;;;7.27;;
65377;SDS011;51982;51.042;13.806;2024-01-06T01:45:22;16.75;;;8.23;;
65377;SDS011;51982;51.042;13.806;2024-01-06T01:47:47;16.40;;;7.27;;
65377;SDS011;51982;51.042;13.806;2024-01-06T01:50:13;16.08;;;8.45;;
65377;SDS011;51982;51.042;13.806;2024-01-06T01:52:39;15.07;;;7.68;;
65377;SDS011;51982;51.042;13.806;2024-01-06T01:55:06;17.63;;;8.05;;
65377;SDS011;51982;51.042;13.806;2024-01-06T01:57:31;13.63;;;7.55;;
65377;SDS011;51982;51.042;13.806;2024-01-06T01:59:57;14.50;;;7.82;;
65377;SDS011;51982;51.042;13.806;2024-01-06T02:02:22;19.33;;;8.05;;
65377;SDS011;51982;51.042;13.806;2024-01-06T02:04:47;15.68;;;7.40;;
65377;SDS011;51982;51.042;13.806;2024-01-06T02:07:13;14.23;;;7.50;;
65377;SDS011;51982;51.042;13.806;2024-01-06T02:09:38;13.10;;;7.55;;
65377;SDS011;51982;51.042;13.806;2024-01-06T02:12:04;16.27;;;8.27;;
65377;SDS011;51982;51.042;13.806;2024-01-06T02:14:29;16.15;;;7.85;;
65377;SDS011;51982;51.042;13.806;2024-01-06T02:16:54;14.98;;;8.23;;
65377;SDS011;51982;51.042;13.806;2024-01-06T02:19:19;17.07;;;7.63;;
65377;SDS011;51982;51.042;13.806;2024-01-06T02:21:49;13.15;;;6.68;;
65377;SDS011;51982;51.042;13.806;2024-01-06T02:24:16;13.30;;;6.50;;
65377;SDS011;51982;51.042;13.806;2024-01-06T02:26:42;15.07;;;6.97;;
65377;SDS011;51982;51.042;13.806;2024-01-06T02:29:07;13.20;;;6.57;;
65377;SDS011;51982;51.042;13.806;2024-01-06T02:31:32;11.00;;;5.83;;
65377;SDS011;51982;51.042;13.806;2024-01-06T02:33:57;11.13;;;6.63;;
65377;SDS011;51982;51.042;13.806;2024-01-06T02:36:22;14.93;;;7.30;;
65377;SDS011;51982;51.042;13.806;2024-01-06T02:38:48;18.60;;;7.30;;
65377;SDS011;51982;51.042;13.806;2024-01-06T02:41:13;13.73;;;7.10;;
65377;SDS011;51982;51.042;13.806;2024-01-06T02:43:38;14.93;;;6.68;;
65377;SDS011;51982;51.042;13.806;2024-01-06T02:46:03;20.93;;;6.27;;
65377;SDS011;51982;51.042;13.806;2024-01-06T02:48:29;14.52;;;6.63;;
65377;SDS011;51982;51.042;13.806;2024-01-06T02:50:55;21.75;;;7.32;;
65377;SDS011;51982;51.042;13.806;2024-01-06T02:53:21;13.82;;;7.28;;
65377;SDS011;51982;51.042;13.806;2024-01-06T02:55:46;12.97;;;6.37;;
65377;SDS011;51982;51.042;13.806;2024-01-06T02:58:11;10.18;;;5.85;;
65377;SDS011;51982;51.042;13.806;2024-01-06T03:00:36;13.60;;;6.50;;
65377;SDS011;51982;51.042;13.806;2024-01-06T03:03:02;14.20;;;6.28;;
65377;SDS011;51982;51.042;13.806;2024-01-06T03:05:27;10.30;;;5.95;;
65377;SDS011;51982;51.042;13.806;2024-01-06T03:07:52;13.17;;;6.80;;
65377;SDS011;51982;51.042;13.806;2024-01-06T03:10:17;14.07;;;5.88;;
65377;SDS011;51982;51.042;13.806;2024-01-06T03:12:43;13.63;;;5.87;;
65377;SDS011;51982;51.042;13.806;2024-01-06T03:15:08;13.70;;;5.60;;
65377;SDS011;51982;51.042;13.806;2024-01-06T03:17:33;15.82;;;6.18;;
65377;SDS011;51982;51.042;13.806;2024-01-06T03:19:59;13.73;;;6.37;;
65377;SDS011;51982;51.042;13.806;2024-01-06T03:22:24;12.23;;;6.07;;
65377;SDS011;51982;51.042;13.806;2024-01-06T03:24:49;13.75;;;6.10;;
65377;SDS011;51982;51.042;13.806;2024-01-06T03:27:14;12.82;;;5.18;;
65377;SDS011;51982;51.042;13.806;2024-01-06T03:29:39;14.82;;;5.88;;
65377;SDS011;51982;51.042;13.806;2024-01-06T03:32:05;10.70;;;5.55;;
65377;SDS011;51982;51.042;13.806;2024-01-06T03:34:31;11.30;;;6.28;;
65377;SDS011;51982;51.042;13.806;2024-01-06T03:36:56;13.37;;;6.07;;
65377;SDS011;51982;51.042;13.806;2024-01-06T03:39:21;13.57;;;6.10;;
65377;SDS011;51982;51.042;13.806;2024-01-06T03:41:47;11.15;;;5.75;;
65377;SDS011;51982;51.042;13.806;2024-01-06T03:44:13;16.50;;;5.85;;
65377;SDS011;51982;51.042;13.806;2024-01-06T03:46:38;13.65;;;5.72;;
65377;SDS011;51982;51.042;13.806;2024-01-06T03:49:03;10.60;;;5.57;;
65377;SDS011;51982;51.042;13.806;2024-01-06T03:51:28;10.57;;;6.10;;
65377;SDS011;51982;51.042;13.806;2024-01-06T03:53:54;13.27;;;6.47;;
65377;SDS011;51982;51.042;13.806;2024-01-06T03:56:19;9.23;;;5.47;;
65377;SDS011;51982;51.042;13.806;2024-01-06T03:58:44;12.52;;;5.93;;
65377;SDS011;51982;51.042;13.806;2024-01-06T04:01:09;11.52;;;6.00;;
65377;SDS011;51982;51.042;13.806;2024-01-06T04:03:35;13.00;;;5.63;;
65377;SDS011;51982;51.042;13.806;2024-01-06T04:06:00;13.35;;;6.03;;
65377;SDS011;51982;51.042;13.806;2024-01-06T04:08:26;10.02;;;5.18;;
65377;SDS011;51982;51.042;13.806;2024-01-06T04:10:51;16.35;;;6.70;;
65377;SDS011;51982;51.042;13.806;2024-01-06T04:13:16;12.90;;;5.73;;
65377;SDS011;51982;51.042;13.806;2024-01-06T04:15:42;11.65;;;6.28;;
65377;SDS011;51982;51.042;13.806;2024-01-06T04:18:07;13.73;;;6.20;;
65377;SDS011;51982;51.042;13.806;2024-01-06T04:20:33;14.45;;;6.35;;
65377;SDS011;51982;51.042;13.806;2024-01-06T04:22:59;11.38;;;6.40;;
65377;SDS011;51982;51.042;13.806;2024-01-06T04:25:24;14.37;;;6.60;;
65377;SDS011;51982;51.042;13.806;2024-01-06T04:27:49;16.77;;;6.65;;
65377;SDS011;51982;51.042;13.806;2024-01-06T04:30:15;14.32;;;7.25;;
65377;SDS011;51982;51.042;13.806;2024-01-06T04:32:41;14.32;;;7.25;;
65377;SDS011;51982;51.042;13.806;2024-01-06T04:35:07;17.05;;;7.18;;
65377;SDS011;51982;51.042;13.806;2024-01-06T04:37:32;15.52;;;7.28;;
65377;SDS011;51982;51.042;13.806;2024-01-06T04:39:58;21.27;;;7.88;;
65377;SDS011;51982;51.042;13.806;2024-01-06T04:42:23;16.52;;;7.45;;
65377;SDS011;51982;51.042;13.806;2024-01-06T04:44:51;18.60;;;7.13;;
65377;SDS011;51982;51.042;13.806;2024-01-06T04:47:17;13.55;;;7.07;;
65377;SDS011;51982;51.042;13.806;2024-01-06T04:49:42;17.42;;;7.95;;
65377;SDS011;51982;51.042;13.806;2024-01-06T04:52:08;16.92;;;7.82;;
65377;SDS011;51982;51.042;13.806;2024-01-06T04:54:34;18.50;;;8.03;;
65377;SDS011;51982;51.042;13.806;2024-01-06T04:56:59;14.77;;;7.70;;
65377;SDS011;51982;51.042;13.806;2024-01-06T04:59:24;19.23;;;7.65;;
65377;SDS011;51982;51.042;13.806;2024-01-06T05:01:50;14.13;;;7.32;;
65377;SDS011;51982;51.042;13.806;2024-01-06T05:04:16;12.70;;;7.18;;
65377;SDS011;51982;51.042;13.806;2024-01-06T05:06:42;16.90;;;8.30;;
65377;SDS011;51982;51.042;13.806;2024-01-06T05:09:07;18.75;;;8.75;;
65377;SDS011;51982;51.042;13.806;2024-01-06T05:11:32;13.90;;;7.87;;
65377;SDS011;51982;51.042;13.806;2024-01-06T05:13:57;15.48;;;8.18;;
65377;SDS011;51982;51.042;13.806;2024-01-06T05:16:22;16.15;;;6.93;;
65377;SDS011;51982;51.042;13.806;2024-01-06T05:18:48;17.63;;;7.85;;
65377;SDS011;51982;51.042;13.806;2024-01-06T05:21:13;14.97;;;7.10;;
65377;SDS011;51982;51.042;13.806;2024-01-06T05:23:38;16.30;;;8.02;;
65377;SDS011;51982;51.042;13.806;2024-01-06T05:26:03;16.67;;;7.37;;
65377;SDS011;51982;51.042;13.806;2024-01-06T05:28:29;13.43;;;7.47;;
65377;SDS011;51982;51.042;13.806;2024-01-06T05:30:54;14.20;;;7.50;;
65377;SDS011;51982;51.042;13.806;2024-01-06T05:33:19;16.83;;;7.40;;
65377;SDS011;51982;51.042;13.806;2024-01-06T05:35:45;16.47;;;7.00;;
65377;SDS011;51982;51.042;13.806;2024-01-06T05:38:10;18.10;;;8.25;;
65377;SDS011;51982;51.042;13.806;2024-01-06T05:40:35;17.42;;;7.82;;
65377;SDS011;51982;51.042;13.806;2024-01-06T05:43:00;15.25;;;8.02;;
65377;SDS011;51982;51.042;13.806;2024-01-06T05:45:26;15.30;;;7.50;;
65377;SDS011;51982;51.042;13.806;2024-01-06T05:47:51;15.03;;;8.13;;
65377;SDS011;51982;51.042;13.806;2024-01-06T05:50:16;17.48;;;7.50;;
65377;SDS011;51982;51.042;13.806;2024-01-06T05:52:41;19.23;;;7.68;;
65377;SDS011;51982;51.042;13.806;2024-01-06T05:55:07;17.30;;;8.50;;
65377;SDS011;51982;51.042;13.806;2024-01-06T05:57:33;18.05;;;8.27;;
65377;SDS011;51982;51.042;13.806;2024-01-06T05:59:59;15.93;;;7.80;;
65377;SDS011;51982;51.042;13.806;2024-01-06T06:02:24;18.10;;;8.68;;
65377;SDS011;51982;51.042;13.806;2024-01-06T06:04:50;18.23;;;8.68;;
65377;SDS011;51982;51.042;13.806;2024-01-06T06:07:16;17.88;;;8.27;;
65377;SDS011;51982;51.042;13.806;2024-01-06T06:09:41;18.25;;;8.35;;
65377;SDS011;51982;51.042;13.806;2024-01-06T06:12:06;18.80;;;9.03;;
65377;SDS011;51982;51.042;13.806;2024-01-06T06:14:32;18.75;;;8.38;;
65377;SDS011;51982;51.042;13.806;2024-01-06T06:16:57;19.57;;;9.53;;
65377;SDS011;51982;51.042;13.806;2024-01-06T06:19:22;19.05;;;8.98;;
65377;SDS011;51982;51.042;13.806;2024-01-06T06:21:47;16.38;;;8.25;;
65377;SDS011;51982;51.042;13.806;2024-01-06T06:24:13;20.77;;;9.23;;
65377;SDS011;51982;51.042;13.806;2024-01-06T06:26:38;19.05;;;9.85;;
65377;SDS011;51982;51.042;13.806;2024-01-06T06:29:03;19.92;;;9.40;;
65377;SDS011;51982;51.042;13.806;2024-01-06T06:31:29;16.65;;;8.90;;
65377;SDS011;51982;51.042;13.806;2024-01-06T06:33:54;19.27;;;9.40;;
65377;SDS011;51982;51.042;13.806;2024-01-06T06:36:19;20.73;;;10.30;;
65377;SDS011;51982;51.042;13.806;2024-01-06T06:38:44;18.67;;;9.52;;
65377;SDS011;51982;51.042;13.806;2024-01-06T06:41:10;19.92;;;9.10;;
65377;SDS011;51982;51.042;13.806;2024-01-06T06:43:35;22.63;;;9.93;;
65377;SDS011;51982;51.042;13.806;2024-01-06T06:46:00;18.80;;;9.83;;
65377;SDS011;51982;51.042;13.806;2024-01-06T06:48:25;21.92;;;9.80;;
65377;SDS011;51982;51.042;13.806;2024-01-06T06:50:51;20.33;;;9.48;;
65377;SDS011;51982;51.042;13.806;2024-01-06T06:53:16;20.33;;;10.02;;
65377;SDS011;51982;51.042;13.806;2024-01-06T06:55:41;23.02;;;10.35;;
65377;SDS011;51982;51.042;13.806;2024-01-06T06:58:06;23.13;;;11.00;;
65377;SDS011;51982;51.042;13.806;2024-01-06T07:00:32;20.20;;;10.63;;
65377;SDS011;51982;51.042;13.806;2024-01-06T07:02:57;23.13;;;11.02;;
65377;SDS011;51982;51.042;13.806;2024-01-06T07:05:23;27.67;;;11.27;;
65377;SDS011;51982;51.042;13.806;2024-01-06T07:07:48;24.13;;;11.68;;
65377;SDS011;51982;51.042;13.806;2024-01-06T07:10:13;28.03;;;11.63;;
65377;SDS011;51982;51.042;13.806;2024-01-06T07:12:39;25.60;;;10.50;;
65377;SDS011;51982;51.042;13.806;2024-01-06T07:15:04;23.80;;;11.10;;
65377;SDS011;51982;51.042;13.806;2024-01-06T07:17:29;26.10;;;12.02;;
65377;SDS011;51982;51.042;13.806;2024-01-06T07:19:55;22.53;;;10.13;;
65377;SDS011;51982;51.042;13.806;2024-01-06T07:22:20;28.67;;;12.20;;
65377;SDS011;51982;51.042;13.806;2024-01-06T07:24:45;22.35;;;10.48;;
65377;SDS011;51982;51.042;13.806;2024-01-06T07:27:11;26.73;;;11.30;;
65377;SDS011;51982;51.042;13.806;2024-01-06T07:29:36;26.58;;;10.98;;
65377;SDS011;51982;51.042;13.806;2024-01-06T07:32:02;24.73;;;11.20;;
65377;SDS011;51982;51.042;13.806;2024-01-06T07:34:28;28.33;;;12.27;;
65377;SDS011;51982;51.042;13.806;2024-01-06T07:36:53;29.60;;;11.60;;
65377;SDS011;51982;51.042;13.806;2024-01-06T07:39:18;24.88;;;11.55;;
65377;SDS011;51982;51.042;13.806;2024-01-06T07:41:43;25.27;;;11.30;;
65377;SDS011;51982;51.042;13.806;2024-01-06T07:44:10;34.08;;;12.65;;
65377;SDS011;51982;51.042;13.806;2024-01-06T07:46:35;26.65;;;10.98;;
65377;SDS011;51982;51.042;13.806;2024-01-06T07:49:01;26.70;;;12.27;;
65377;SDS011;51982;51.042;13.806;2024-01-06T07:51:27;27.52;;;10.98;;
65377;SDS011;51982;51.042;13.806;2024-01-06T07:53:52;30.47;;;11.60;;
65377;SDS011;51982;51.042;13.806;2024-01-06T07:56:17;29.30;;;11.05;;
65377;SDS011;51982;51.042;13.806;2024-01-06T07:58:43;30.85;;;12.52;;
65377;SDS011;51982;51.042;13.806;2024-01-06T08:01:08;29.08;;;11.65;;
65377;SDS011;51982;51.042;13.806;2024-01-06T08:03:33;22.87;;;11.10;;
65377;SDS011;51982;51.042;13.806;2024-01-06T08:05:59;28.08;;;11.00;;
65377;SDS011;51982;51.042;13.806;2024-01-06T08:08:24;28.77;;;12.85;;
65377;SDS011;51982;51.042;13.806;2024-01-06T08:10:49;31.65;;;12.10;;
65377;SDS011;51982;51.042;13.806;2024-01-06T08:13:15;26.67;;;11.25;;
65377;SDS011;51982;51.042;13.806;2024-01-06T08:15:40;28.37;;;11.80;;
65377;SDS011;51982;51.042;13.806;2024-01-06T08:18:05;30.63;;;12.13;;
65377;SDS011;51982;51.042;13.806;2024-01-06T08:20:31;29.63;;;11.75;;
65377;SDS011;51982;51.042;13.806;2024-01-06T08:22:56;28.02;;;12.35;;
65377;SDS011;51982;51.042;13.806;2024-01-06T08:25:21;27.85;;;12.25;;
65377;SDS011;51982;51.042;13.806;2024-01-06T08:27:47;25.97;;;13.03;;
65377;SDS011;51982;51.042;13.806;2024-01-06T08:30:12;27.42;;;12.27;;
65377;SDS011;51982;51.042;13.806;2024-01-06T08:32:37;27.38;;;12.88;;
65377;SDS011;51982;51.042;13.806;2024-01-06T08:35:03;31.40;;;13.25;;
65377;SDS011;51982;51.042;13.806;2024-01-06T08:37:28;32.40;;;12.68;;
65377;SDS011;51982;51.042;13.806;2024-01-06T08:39:54;25.27;;;12.15;;
65377;SDS011;51982;51.042;13.806;2024-01-06T08:42:19;25.13;;;11.88;;
65377;SDS011;51982;51.042;13.806;2024-01-06T08:44:44;28.65;;;11.50;;
65377;SDS011;51982;51.042;13.806;2024-01-06T08:47:10;28.00;;;12.15;;
65377;SDS011;51982;51.042;13.806;2024-01-06T08:49:35;28.30;;;11.85;;
65377;SDS011;51982;51.042;13.806;2024-01-06T08:52:00;26.45;;;11.23;;
65377;SDS011;51982;51.042;13.806;2024-01-06T08:54:25;28.83;;;12.33;;
65377;SDS011;51982;51.042;13.806;2024-01-06T08:56:51;24.17;;;10.93;;
65377;SDS011;51982;51.042;13.806;2024-01-06T08:59:16;29.03;;;11.93;;
65377;SDS011;51982;51.042;13.806;2024-01-06T09:01:41;24.83;;;11.45;;
65377;SDS011;51982;51.042;13.806;2024-01-06T09:04:07;26.77;;;11.10;;
65377;SDS011;51982;51.042;13.806;2024-01-06T09:06:32;26.92;;;11.82;;
65377;SDS011;51982;51.042;13.806;2024-01-06T09:08:57;23.98;;;11.55;;
65377;SDS011;51982;51.042;13.806;2024-01-06T09:11:23;29.83;;;12.20;;
65377;SDS011;51982;51.042;13.806;2024-01-06T09:13:48;26.08;;;12.63;;
65377;SDS011;51982;51.042;13.806;2024-01-06T09:16:14;24.02;;;11.63;;
65377;SDS011;51982;51.042;13.806;2024-01-06T09:18:39;30.50;;;12.18;;
65377;SDS011;51982;51.042;13.806;2024-01-06T09:21:04;26.55;;;11.68;;
65377;SDS011;51982;51.042;13.806;2024-01-06T09:23:30;26.55;;;11.30;;
65377;SDS011;51982;51.042;13.806;2024-01-06T09:25:56;24.10;;;11.60;;
65377;SDS011;51982;51.042;13.806;2024-01-06T09:28:22;23.02;;;10.98;;
65377;SDS011;51982;51.042;13.806;2024-01-06T09:30:47;29.23;;;11.73;;
65377;SDS011;51982;51.042;13.806;2024-01-06T09:33:12;27.67;;;11.57;;
65377;SDS011;51982;51.042;13.806;2024-01-06T09:35:40;26.77;;;12.02;;
65377;SDS011;51982;51.042;13.806;2024-01-06T09:38:06;25.58;;;11.52;;
65377;SDS011;51982;51.042;13.806;2024-01-06T09:40:32;27.80;;;11.07;;
65377;SDS011;51982;51.042;13.806;2024-01-06T09:42:59;24.23;;;10.73;;
65377;SDS011;51982;51.042;13.806;2024-01-06T09:45:24;23.73;;;11.65;;
65377;SDS011;51982;51.042;13.806;2024-01-06T09:47:50;24.00;;;11.63;;
65377;SDS011;51982;51.042;13.806;2024-01-06T09:50:17;25.73;;;12.00;;
65377;SDS011;51982;51.042;13.806;2024-01-06T09:52:45;25.40;;;11.95;;
65377;SDS011;51982;51.042;13.806;2024-01-06T09:55:17;24.50;;;11.68;;
65377;SDS011;51982;51.042;13.806;2024-01-06T09:57:47;25.80;;;12.07;;
65377;SDS011;51982;51.042;13.806;2024-01-06T10:00:12;22.47;;;11.63;;
65377;SDS011;51982;51.042;13.806;2024-01-06T10:02:37;22.35;;;11.63;;
65377;SDS011;51982;51.042;13.806;2024-01-06T10:05:03;23.92;;;11.65;;
65377;SDS011;51982;51.042;13.806;2024-01-06T10:07:29;26.10;;;11.80;;
65377;SDS011;51982;51.042;13.806;2024-01-06T10:09:54;25.90;;;11.60;;
65377;SDS011;51982;51.042;13.806;2024-01-06T10:12:23;21.92;;;11.40;;
65377;SDS011;51982;51.042;13.806;2024-01-06T10:14:49;23.45;;;11.88;;
65377;SDS011;51982;51.042;13.806;2024-01-06T10:17:14;25.00;;;12.25;;
65377;SDS011;51982;51.042;13.806;2024-01-06T10:19:39;24.23;;;11.75;;
65377;SDS011;51982;51.042;13.806;2024-01-06T10:22:05;22.92;;;11.18;;
65377;SDS011;51982;51.042;13.806;2024-01-06T10:24:30;21.13;;;11.60;;
65377;SDS011;51982;51.042;13.806;2024-01-06T10:26:56;21.55;;;10.98;;
65377;SDS011;51982;51.042;13.806;2024-01-06T10:29:21;23.00;;;11.55;;
65377;SDS011;51982;51.042;13.806;2024-01-06T10:31:47;22.38;;;11.05;;
65377;SDS011;51982;51.042;13.806;2024-01-06T10:34:12;22.65;;;11.95;;
65377;SDS011;51982;51.042;13.806;2024-01-06T10:36:39;21.60;;;11.52;;
65377;SDS011;51982;51.042;13.806;2024-01-06T10:39:04;24.23;;;12.10;;
65377;SDS011;51982;51.042;13.806;2024-01-06T10:41:32;21.83;;;11.02;;
65377;SDS011;51982;51.042;13.806;2024-01-06T10:43:59;20.02;;;10.75;;
65377;SDS011;51982;51.042;13.806;2024-01-06T10:46:26;24.05;;;11.05;;
65377;SDS011;51982;51.042;13.806;2024-01-06T10:48:52;23.85;;;11.27;;
65377;SDS011;51982;51.042;13.806;2024-01-06T10:51:20;22.92;;;11.52;;
65377;SDS011;51982;51.042;13.806;2024-01-06T10:53:47;24.35;;;11.70;;
65377;SDS011;51982;51.042;13.806;2024-01-06T10:56:13;21.08;;;10.85;;
65377;SDS011;51982;51.042;13.806;2024-01-06T10:58:45;23.63;;;11.13;;
65377;SDS011;51982;51.042;13.806;2024-01-06T11:01:12;25.45;;;11.38;;
65377;SDS011;51982;51.042;13.806;2024-01-06T11:03:37;26.30;;;12.02;;
65377;SDS011;51982;51.042;13.806;2024-01-06T11:06:04;21.42;;;11.05;;
65377;SDS011;51982;51.042;13.806;2024-01-06T11:08:31;26.55;;;11.40;;
65377;SDS011;51982;51.042;13.806;2024-01-06T11:11:01;22.02;;;11.35;;
65377;SDS011;51982;51.042;13.806;2024-01-06T11:13:30;22.48;;;10.75;;
65377;SDS011;51982;51.042;13.806;2024-01-06T11:15:55;24.13;;;11.60;;
65377;SDS011;51982;51.042;13.806;2024-01-06T11:23:42;21.67;;;11.35;;
65377;SDS011;51982;51.042;13.806;2024-01-06T11:26:11;23.70;;;10.98;;
65377;SDS011;51982;51.042;13.806;2024-01-06T11:28:45;22.00;;;11.10;;
65377;SDS011;51982;51.042;13.806;2024-01-06T11:31:11;23.80;;;10.85;;
65377;SDS011;51982;51.042;13.806;2024-01-06T11:33:41;20.67;;;10.98;;
65377;SDS011;51982;51.042;13.806;2024-01-06T11:36:10;23.60;;;10.95;;
65377;SDS011;51982;51.042;13.806;2024-01-06T11:38:38;20.60;;;10.50;;
65377;SDS011;51982;51.042;13.806;2024-01-06T11:41:08;23.52;;;10.85;;
65377;SDS011;51982;51.042;13.806;2024-01-06T11:43:36;20.40;;;10.60;;
65377;SDS011;51982;51.042;13.806;2024-01-06T11:46:05;23.42;;;10.85;;
65377;SDS011;51982;51.042;13.806;2024-01-06T11:48:31;20.98;;;10.35;;
65377;SDS011;51982;51.042;13.806;2024-01-06T11:50:58;21.65;;;10.20;;
65377;SDS011;51982;51.042;13.806;2024-01-06T11:53:23;20.60;;;11.13;;
65377;SDS011;51982;51.042;13.806;2024-01-06T11:55:51;22.17;;;10.77;;
65377;SDS011;51982;51.042;13.806;2024-01-06T11:58:17;21.40;;;10.27;;
65377;SDS011;51982;51.042;13.806;2024-01-06T12:00:42;21.50;;;10.77;;
65377;SDS011;51982;51.042;13.806;2024-01-06T12:03:07;26.77;;;11.07;;
65377;SDS011;51982;51.042;13.806;2024-01-06T12:05:33;23.10;;;10.68;;
65377;SDS011;51982;51.042;13.806;2024-01-06T12:08:02;19.17;;;10.57;;
65377;SDS011;51982;51.042;13.806;2024-01-06T12:10:31;21.27;;;10.38;;
65377;SDS011;51982;51.042;13.806;2024-01-06T12:12:58;26.50;;;10.30;;
65377;SDS011;51982;51.042;13.806;2024-01-06T12:15:28;23.48;;;10.73;;
65377;SDS011;51982;51.042;13.806;2024-01-06T12:17:54;23.13;;;10.27;;
65377;SDS011;51982;51.042;13.806;2024-01-06T12:20:26;20.60;;;10.10;;
65377;SDS011;51982;51.042;13.806;2024-01-06T12:23:23;17.98;;;9.75;;
65377;SDS011;51982;51.042;13.806;2024-01-06T12:26:20;19.90;;;9.73;;
65377;SDS011;51982;51.042;13.806;2024-01-06T12:28:51;18.15;;;9.07;;
65377;SDS011;51982;51.042;13.806;2024-01-06T12:34:21;18.60;;;10.02;;
65377;SDS011;51982;51.042;13.806;2024-01-06T12:37:13;20.67;;;9.60;;
65377;SDS011;51982;51.042;13.806;2024-01-06T12:39:47;19.23;;;9.63;;
65377;SDS011;51982;51.042;13.806;2024-01-06T12:42:35;18.58;;;9.82;;
65377;SDS011;51982;51.042;13.806;2024-01-06T12:45:22;17.35;;;8.93;;
65377;SDS011;51982;51.042;13.806;2024-01-06T12:48:29;16.30;;;8.75;;
65377;SDS011;51982;51.042;13.806;2024-01-06T12:51:20;19.27;;;9.35;;
65377;SDS011;51982;51.042;13.806;2024-01-06T12:53:45;19.13;;;8.82;;
65377;SDS011;51982;51.042;13.806;2024-01-06T12:56:10;19.45;;;9.30;;
65377;SDS011;51982;51.042;13.806;2024-01-06T12:58:36;18.77;;;9.63;;
65377;SDS011;51982;51.042;13.806;2024-01-06T13:01:01;23.45;;;9.93;;
65377;SDS011;51982;51.042;13.806;2024-01-06T13:03:27;19.15;;;9.52;;
65377;SDS011;51982;51.042;13.806;2024-01-06T13:05:52;20.85;;;10.77;;
65377;SDS011;51982;51.042;13.806;2024-01-06T13:08:35;22.63;;;11.20;;
65377;SDS011;51982;51.042;13.806;2024-01-06T13:11:00;20.95;;;10.65;;
65377;SDS011;51982;51.042;13.806;2024-01-06T13:20:49;19.45;;;10.35;;
65377;SDS011;51982;51.042;13.806;2024-01-06T13:23:18;20.80;;;11.32;;
65377;SDS011;51982;51.042;13.806;2024-01-06T13:25:49;19.70;;;11.35;;
65377;SDS011;51982;51.042;13.806;2024-01-06T13:28:41;12.60;;;7.10;;
65377;SDS011;51982;51.042;13.806;2024-01-06T13:35:11;13.70;;;7.22;;
65377;SDS011;51982;51.042;13.806;2024-01-06T13:38:17;16.57;;;8.27;;
65377;SDS011;51982;51.042;13.806;2024-01-06T13:40:51;17.20;;;8.40;;
65377;SDS011;51982;51.042;13.806;2024-01-06T13:43:17;18.48;;;8.90;;
65377;SDS011;51982;51.042;13.806;2024-01-06T13:45:43;19.77;;;8.50;;
65377;SDS011;51982;51.042;13.806;2024-01-06T13:48:12;16.25;;;8.43;;
65377;SDS011;51982;51.042;13.806;2024-01-06T13:50:44;21.50;;;9.25;;
65377;SDS011;51982;51.042;13.806;2024-01-06T13:53:11;24.92;;;10.05;;
65377;SDS011;51982;51.042;13.806;2024-01-06T13:55:36;20.08;;;9.85;;
65377;SDS011;51982;51.042;13.806;2024-01-06T13:58:09;23.08;;;10.48;;
65377;SDS011;51982;51.042;13.806;2024-01-06T14:00:35;28.40;;;11.50;;
65377;SDS011;51982;51.042;13.806;2024-01-06T14:03:01;21.38;;;10.20;;
65377;SDS011;51982;51.042;13.806;2024-01-06T14:05:26;26.70;;;12.48;;
65377;SDS011;51982;51.042;13.806;2024-01-06T14:07:52;25.20;;;11.15;;
65377;SDS011;51982;51.042;13.806;2024-01-06T14:10:17;24.83;;;11.40;;
65377;SDS011;51982;51.042;13.806;2024-01-06T14:12:48;24.13;;;11.45;;
65377;SDS011;51982;51.042;13.806;2024-01-06T14:21:29;26.70;;;10.60;;
65377;SDS011;51982;51.042;13.806;2024-01-06T14:43:36;30.23;;;12.23;;
65377;SDS011;51982;51.042;13.806;2024-01-06T14:46:24;34.70;;;13.60;;
65377;SDS011;51982;51.042;13.806;2024-01-06T14:49:44;34.35;;;12.57;;
65377;SDS011;51982;51.042;13.806;2024-01-06T14:52:17;38.17;;;14.50;;
65377;SDS011;51982;51.042;13.806;2024-01-06T14:54:43;34.15;;;15.02;;
65377;SDS011;51982;51.042;13.806;2024-01-06T14:57:12;38.42;;;14.50;;
65377;SDS011;51982;51.042;13.806;2024-01-06T14:59:40;32.53;;;14.68;;